sensor_id;sensor_type;location;lat;lon;timestamp;pressure;altitude;pressure_sealevel;temperature;humidity
16331;BME280;8275;48.206;16.340;2023-04-27T00:00:04;99497.31;;;14.41;29.03
16331;BME280;8275;48.206;16.340;2023-04-27T00:02:35;99502.25;;;14.39;29.14
16331;BME280;8275;48.206;16.340;2023-04-27T00:05:06;99497.56;;;14.39;29.16
16331;BME280;8275;48.206;16.340;2023-04-27T00:07:37;99497.31;;;14.41;29.00
16331;BME280;8275;48.206;16.340;2023-04-27T00:10:08;99496.47;;;14.40;29.11
16331;BME280;8275;48.206;16.340;2023-04-27T00:12:37;99497.31;;;14.41;29.15
16331;BME280;8275;48.206;16.340;2023-04-27T00:15:07;99499.22;;;14.40;28.96
16331;BME280;8275;48.206;16.340;2023-04-27T00:17:36;99490.66;;;14.42;28.78
16331;BME280;8275;48.206;16.340;2023-04-27T00:20:07;99494.81;;;14.44;29.03
16331;BME280;8275;48.206;16.340;2023-04-27T00:22:37;99494.53;;;14.46;29.01
16331;BME280;8275;48.206;16.340;2023-04-27T00:25:07;99486.81;;;14.48;29.13
16331;BME280;8275;48.206;16.340;2023-04-27T00:27:36;99486.53;;;14.49;28.90
16331;BME280;8275;48.206;16.340;2023-04-27T00:30:06;99486.25;;;14.51;28.83
16331;BME280;8275;48.206;16.340;2023-04-27T00:32:34;99484.34;;;14.51;28.81
16331;BME280;8275;48.206;16.340;2023-04-27T00:35:07;99492.59;;;14.51;28.90
16331;BME280;8275;48.206;16.340;2023-04-27T00:37:36;99487.38;;;14.50;28.90
16331;BME280;8275;48.206;16.340;2023-04-27T00:40:06;99488.47;;;14.49;28.87
16331;BME280;8275;48.206;16.340;2023-04-27T00:42:35;99477.72;;;14.47;28.87
16331;BME280;8275;48.206;16.340;2023-04-27T00:45:04;99479.66;;;14.47;28.75
16331;BME280;8275;48.206;16.340;2023-04-27T00:47:33;99473.59;;;14.45;28.80
16331;BME280;8275;48.206;16.340;2023-04-27T00:50:04;99472.75;;;14.44;28.89
16331;BME280;8275;48.206;16.340;2023-04-27T00:52:35;99475.78;;;14.43;28.91
16331;BME280;8275;48.206;16.340;2023-04-27T00:55:05;99487.06;;;14.41;28.88
16331;BME280;8275;48.206;16.340;2023-04-27T00:57:34;99469.19;;;14.39;28.86
16331;BME280;8275;48.206;16.340;2023-04-27T01:00:04;99478.00;;;14.36;28.91
16331;BME280;8275;48.206;16.340;2023-04-27T01:02:34;99473.88;;;14.33;29.04
16331;BME280;8275;48.206;16.340;2023-04-27T01:05:05;99471.91;;;14.29;29.12
16331;BME280;8275;48.206;16.340;2023-04-27T01:07:36;99470.25;;;14.28;29.13
16331;BME280;8275;48.206;16.340;2023-04-27T01:10:07;99479.88;;;14.25;29.00
16331;BME280;8275;48.206;16.340;2023-04-27T01:12:35;99475.19;;;14.26;29.13
16331;BME280;8275;48.206;16.340;2023-04-27T01:15:06;99476.56;;;14.23;29.01
16331;BME280;8275;48.206;16.340;2023-04-27T01:17:35;99479.63;;;14.22;29.09
16331;BME280;8275;48.206;16.340;2023-04-27T01:20:06;99479.34;;;14.18;29.14
16331;BME280;8275;48.206;16.340;2023-04-27T01:22:36;99475.47;;;14.14;29.16
16331;BME280;8275;48.206;16.340;2023-04-27T01:25:08;99471.63;;;14.10;29.06
16331;BME280;8275;48.206;16.340;2023-04-27T01:27:37;99477.41;;;14.08;29.37
16331;BME280;8275;48.206;16.340;2023-04-27T01:30:06;99482.91;;;14.03;29.36
16331;BME280;8275;48.206;16.340;2023-04-27T01:32:36;99484.28;;;14.01;29.46
16331;BME280;8275;48.206;16.340;2023-04-27T01:35:05;99483.97;;;13.97;29.43
16331;BME280;8275;48.206;16.340;2023-04-27T01:37:34;99487.31;;;13.94;29.62
16331;BME280;8275;48.206;16.340;2023-04-27T01:40:04;99487.56;;;13.88;29.48
16331;BME280;8275;48.206;16.340;2023-04-27T01:42:34;99483.97;;;13.82;29.44
16331;BME280;8275;48.206;16.340;2023-04-27T01:45:04;99488.63;;;13.77;29.51
16331;BME280;8275;48.206;16.340;2023-04-27T01:47:33;99482.28;;;13.71;29.58
16331;BME280;8275;48.206;16.340;2023-04-27T01:50:01;99489.44;;;13.67;29.70
16331;BME280;8275;48.206;16.340;2023-04-27T01:52:30;99488.59;;;13.62;29.64
16331;BME280;8275;48.206;16.340;2023-04-27T01:54:58;99486.66;;;13.57;29.86
16331;BME280;8275;48.206;16.340;2023-04-27T01:57:26;99487.19;;;13.54;29.88
16331;BME280;8275;48.206;16.340;2023-04-27T01:59:56;99493.50;;;13.50;30.05
16331;BME280;8275;48.206;16.340;2023-04-27T02:02:24;99491.03;;;13.48;30.08
16331;BME280;8275;48.206;16.340;2023-04-27T02:04:53;99493.22;;;13.46;30.19
16331;BME280;8275;48.206;16.340;2023-04-27T02:07:22;99488.81;;;13.45;30.09
16331;BME280;8275;48.206;16.340;2023-04-27T02:09:50;99483.88;;;13.42;30.17
16331;BME280;8275;48.206;16.340;2023-04-27T02:12:19;99494.28;;;13.40;30.13
16331;BME280;8275;48.206;16.340;2023-04-27T02:14:47;99494.00;;;13.36;30.12
16331;BME280;8275;48.206;16.340;2023-04-27T02:17:17;99495.66;;;13.32;30.32
16331;BME280;8275;48.206;16.340;2023-04-27T02:19:45;99497.03;;;13.30;30.30
16331;BME280;8275;48.206;16.340;2023-04-27T02:22:13;99493.16;;;13.26;30.24
16331;BME280;8275;48.206;16.340;2023-04-27T02:24:42;99500.25;;;13.22;30.43
16331;BME280;8275;48.206;16.340;2023-04-27T02:27:10;99501.06;;;13.17;30.34
16331;BME280;8275;48.206;16.340;2023-04-27T02:29:39;99498.28;;;13.12;30.51
16331;BME280;8275;48.206;16.340;2023-04-27T02:32:08;99504.59;;;13.08;30.50
16331;BME280;8275;48.206;16.340;2023-04-27T02:34:38;99495.47;;;13.02;30.58
16331;BME280;8275;48.206;16.340;2023-04-27T02:37:06;99498.19;;;12.97;30.54
16331;BME280;8275;48.206;16.340;2023-04-27T02:39:34;99492.94;;;12.91;30.79
16331;BME280;8275;48.206;16.340;2023-04-27T02:42:03;99490.13;;;12.86;30.67
16331;BME280;8275;48.206;16.340;2023-04-27T02:44:31;99503.00;;;12.80;30.65
16331;BME280;8275;48.206;16.340;2023-04-27T02:47:00;99504.66;;;12.76;30.80
16331;BME280;8275;48.206;16.340;2023-04-27T02:49:28;99500.78;;;12.72;31.03
16331;BME280;8275;48.206;16.340;2023-04-27T02:51:59;99503.22;;;12.68;30.98
16331;BME280;8275;48.206;16.340;2023-04-27T02:54:27;99508.41;;;12.65;31.09
16331;BME280;8275;48.206;16.340;2023-04-27T02:56:56;99516.09;;;12.63;30.95
16331;BME280;8275;48.206;16.340;2023-04-27T02:59:24;99502.88;;;12.60;31.27
16331;BME280;8275;48.206;16.340;2023-04-27T03:01:53;99506.75;;;12.59;31.15
16331;BME280;8275;48.206;16.340;2023-04-27T03:04:21;99504.22;;;12.57;30.91
16331;BME280;8275;48.206;16.340;2023-04-27T03:06:50;99511.91;;;12.55;31.26
16331;BME280;8275;48.206;16.340;2023-04-27T03:09:19;99517.97;;;12.57;30.99
16331;BME280;8275;48.206;16.340;2023-04-27T03:11:48;99517.16;;;12.57;31.06
16331;BME280;8275;48.206;16.340;2023-04-27T03:14:16;99515.00;;;12.59;31.28
16331;BME280;8275;48.206;16.340;2023-04-27T03:16:45;99514.72;;;12.60;31.35
16331;BME280;8275;48.206;16.340;2023-04-27T03:19:14;99510.88;;;12.61;31.45
16331;BME280;8275;48.206;16.340;2023-04-27T03:21:42;99503.44;;;12.62;31.34
16331;BME280;8275;48.206;16.340;2023-04-27T03:24:11;99514.44;;;12.62;31.28
16331;BME280;8275;48.206;16.340;2023-04-27T03:26:40;99521.88;;;12.61;31.43
16331;BME280;8275;48.206;16.340;2023-04-27T03:29:09;99522.97;;;12.60;31.46
16331;BME280;8275;48.206;16.340;2023-04-27T03:31:37;99515.00;;;12.59;31.28
16331;BME280;8275;48.206;16.340;2023-04-27T03:34:06;99523.47;;;12.57;31.40
16331;BME280;8275;48.206;16.340;2023-04-27T03:36:34;99523.47;;;12.57;31.49
16331;BME280;8275;48.206;16.340;2023-04-27T03:39:03;99519.59;;;12.53;31.24
16331;BME280;8275;48.206;16.340;2023-04-27T03:41:31;99527.56;;;12.50;31.24
16331;BME280;8275;48.206;16.340;2023-04-27T03:44:01;99527.81;;;12.48;31.58
16331;BME280;8275;48.206;16.340;2023-04-27T03:46:30;99524.50;;;12.46;31.30
16331;BME280;8275;48.206;16.340;2023-04-27T03:48:58;99529.41;;;12.44;31.49
16331;BME280;8275;48.206;16.340;2023-04-27T03:51:27;99531.59;;;12.42;31.73
16331;BME280;8275;48.206;16.340;2023-04-27T03:53:58;99538.19;;;12.41;31.80
16331;BME280;8275;48.206;16.340;2023-04-27T03:56:26;99529.13;;;12.41;31.65
16331;BME280;8275;48.206;16.340;2023-04-27T03:58:55;99542.88;;;12.41;31.90
16331;BME280;8275;48.206;16.340;2023-04-27T04:01:25;99536.78;;;12.39;31.97
16331;BME280;8275;48.206;16.340;2023-04-27T04:03:53;99539.28;;;12.40;31.80
16331;BME280;8275;48.206;16.340;2023-04-27T04:06:22;99539.28;;;12.40;31.78
16331;BME280;8275;48.206;16.340;2023-04-27T04:08:51;99539.28;;;12.40;31.81
16331;BME280;8275;48.206;16.340;2023-04-27T04:11:19;99542.31;;;12.44;31.75
16331;BME280;8275;48.206;16.340;2023-04-27T04:13:48;99542.66;;;12.47;32.02
16331;BME280;8275;48.206;16.340;2023-04-27T04:16:17;99547.34;;;12.52;31.67
16331;BME280;8275;48.206;16.340;2023-04-27T04:18:46;99541.06;;;12.56;31.88
16331;BME280;8275;48.206;16.340;2023-04-27T04:21:15;99534.00;;;12.65;31.86
16331;BME280;8275;48.206;16.340;2023-04-27T04:23:44;99537.34;;;12.73;31.67
16331;BME280;8275;48.206;16.340;2023-04-27T04:26:12;99539.88;;;12.79;31.91
16331;BME280;8275;48.206;16.340;2023-04-27T04:28:40;99534.69;;;12.88;31.59
16331;BME280;8275;48.206;16.340;2023-04-27T04:31:10;99539.44;;;12.97;31.75
16331;BME280;8275;48.206;16.340;2023-04-27T04:33:39;99548.34;;;13.09;31.44
16331;BME280;8275;48.206;16.340;2023-04-27T04:36:09;99549.53;;;13.23;31.46
16331;BME280;8275;48.206;16.340;2023-04-27T04:38:38;99545.22;;;13.38;31.17
16331;BME280;8275;48.206;16.340;2023-04-27T04:41:06;99548.03;;;13.53;31.33
16331;BME280;8275;48.206;16.340;2023-04-27T04:43:36;99550.81;;;13.68;31.02
16331;BME280;8275;48.206;16.340;2023-04-27T04:46:04;99551.13;;;13.81;30.79
16331;BME280;8275;48.206;16.340;2023-04-27T04:48:35;99546.78;;;13.95;30.68
16331;BME280;8275;48.206;16.340;2023-04-27T04:51:04;99546.00;;;14.10;30.58
16331;BME280;8275;48.206;16.340;2023-04-27T04:53:35;99543.25;;;14.25;30.54
16331;BME280;8275;48.206;16.340;2023-04-27T04:56:11;99541.13;;;14.42;30.63
16331;BME280;8275;48.206;16.340;2023-04-27T04:58:40;99546.06;;;14.60;30.55
16331;BME280;8275;48.206;16.340;2023-04-27T05:01:08;99546.91;;;14.76;30.68
16331;BME280;8275;48.206;16.340;2023-04-27T05:03:38;99546.06;;;14.91;30.78
16331;BME280;8275;48.206;16.340;2023-04-27T05:06:07;99552.13;;;15.03;30.74
16331;BME280;8275;48.206;16.340;2023-04-27T05:08:36;99551.00;;;15.14;30.76
16331;BME280;8275;48.206;16.340;2023-04-27T05:11:05;99553.44;;;15.25;30.83
16331;BME280;8275;48.206;16.340;2023-04-27T05:13:35;99553.16;;;15.37;30.79
16331;BME280;8275;48.206;16.340;2023-04-27T05:16:04;99552.59;;;15.45;30.77
16331;BME280;8275;48.206;16.340;2023-04-27T05:18:33;99549.25;;;15.53;30.63
16331;BME280;8275;48.206;16.340;2023-04-27T05:21:02;99551.72;;;15.60;30.59
16331;BME280;8275;48.206;16.340;2023-04-27T05:23:31;99552.25;;;15.62;30.64
16331;BME280;8275;48.206;16.340;2023-04-27T05:26:01;99555.84;;;15.62;30.64
16331;BME280;8275;48.206;16.340;2023-04-27T05:28:37;99565.22;;;15.61;30.53
16331;BME280;8275;48.206;16.340;2023-04-27T05:31:06;99556.69;;;15.58;30.63
16331;BME280;8275;48.206;16.340;2023-04-27T05:33:35;99561.13;;;15.54;30.60
16331;BME280;8275;48.206;16.340;2023-04-27T05:36:04;99563.06;;;15.48;30.71
16331;BME280;8275;48.206;16.340;2023-04-27T05:38:32;99556.16;;;15.40;30.81
16331;BME280;8275;48.206;16.340;2023-04-27T05:41:03;99564.19;;;15.37;30.66
16331;BME280;8275;48.206;16.340;2023-04-27T05:43:32;99563.34;;;15.36;30.94
16331;BME280;8275;48.206;16.340;2023-04-27T05:46:01;99569.41;;;15.38;30.76
16331;BME280;8275;48.206;16.340;2023-04-27T05:48:29;99568.31;;;15.50;30.77
16331;BME280;8275;48.206;16.340;2023-04-27T05:51:01;99573.50;;;15.61;30.86
16331;BME280;8275;48.206;16.340;2023-04-27T05:53:32;99576.78;;;15.78;30.88
16331;BME280;8275;48.206;16.340;2023-04-27T05:56:03;99578.59;;;15.98;30.79
16331;BME280;8275;48.206;16.340;2023-04-27T05:58:33;99576.31;;;16.15;30.86
16331;BME280;8275;48.206;16.340;2023-04-27T06:01:01;99580.94;;;16.30;30.41
16331;BME280;8275;48.206;16.340;2023-04-27T06:03:30;99581.88;;;16.49;30.54
16331;BME280;8275;48.206;16.340;2023-04-27T06:06:00;99578.47;;;16.67;30.32
16331;BME280;8275;48.206;16.340;2023-04-27T06:08:29;99582.19;;;16.86;29.86
16331;BME280;8275;48.206;16.340;2023-04-27T06:10:57;99582.59;;;17.03;29.83
16331;BME280;8275;48.206;16.340;2023-04-27T06:13:27;99587.41;;;17.21;29.32
16331;BME280;8275;48.206;16.340;2023-04-27T06:15:55;99583.09;;;17.34;29.18
16331;BME280;8275;48.206;16.340;2023-04-27T06:18:24;99583.00;;;17.44;28.93
16331;BME280;8275;48.206;16.340;2023-04-27T06:20:56;99582.13;;;17.53;28.88
16331;BME280;8275;48.206;16.340;2023-04-27T06:23:25;99580.09;;;17.59;28.72
16331;BME280;8275;48.206;16.340;2023-04-27T06:25:53;99596.09;;;17.67;28.54
16331;BME280;8275;48.206;16.340;2023-04-27T06:28:22;99593.78;;;17.74;28.46
16331;BME280;8275;48.206;16.340;2023-04-27T06:30:52;99590.06;;;17.84;28.30
16331;BME280;8275;48.206;16.340;2023-04-27T06:33:21;99591.28;;;17.96;28.28
16331;BME280;8275;48.206;16.340;2023-04-27T06:35:49;99589.22;;;18.07;28.09
16331;BME280;8275;48.206;16.340;2023-04-27T06:38:18;99598.53;;;18.16;27.94
16331;BME280;8275;48.206;16.340;2023-04-27T06:40:50;99590.66;;;18.23;27.85
16331;BME280;8275;48.206;16.340;2023-04-27T06:43:19;99590.94;;;18.21;27.58
16331;BME280;8275;48.206;16.340;2023-04-27T06:45:47;99595.13;;;18.19;27.63
16331;BME280;8275;48.206;16.340;2023-04-27T06:48:17;99598.66;;;18.24;27.47
16331;BME280;8275;48.206;16.340;2023-04-27T06:50:46;99603.25;;;18.34;27.49
16331;BME280;8275;48.206;16.340;2023-04-27T06:53:15;99591.97;;;18.49;27.33
16331;BME280;8275;48.206;16.340;2023-04-27T06:55:44;99596.00;;;18.57;27.24
16331;BME280;8275;48.206;16.340;2023-04-27T06:58:14;99595.94;;;18.62;26.92
16331;BME280;8275;48.206;16.340;2023-04-27T07:00:43;99600.78;;;18.70;26.72
16331;BME280;8275;48.206;16.340;2023-04-27T07:03:11;99583.47;;;18.78;26.67
16331;BME280;8275;48.206;16.340;2023-04-27T07:05:42;99591.72;;;18.83;26.20
16331;BME280;8275;48.206;16.340;2023-04-27T07:08:12;99587.66;;;18.94;26.00
16331;BME280;8275;48.206;16.340;2023-04-27T07:10:40;99587.38;;;19.09;25.78
16331;BME280;8275;48.206;16.340;2023-04-27T07:13:09;99575.50;;;19.22;25.58
16331;BME280;8275;48.206;16.340;2023-04-27T07:15:39;99573.47;;;19.41;25.38
16331;BME280;8275;48.206;16.340;2023-04-27T07:18:08;99566.81;;;19.56;24.91
16331;BME280;8275;48.206;16.340;2023-04-27T07:20:39;99569.28;;;19.57;24.82
16331;BME280;8275;48.206;16.340;2023-04-27T07:23:09;99563.94;;;19.61;24.87
16331;BME280;8275;48.206;16.340;2023-04-27T07:25:37;99570.72;;;19.69;24.77
16331;BME280;8275;48.206;16.340;2023-04-27T07:28:06;99571.44;;;19.74;24.68
16331;BME280;8275;48.206;16.340;2023-04-27T07:30:35;99571.44;;;19.74;24.16
16331;BME280;8275;48.206;16.340;2023-04-27T07:33:03;99567.94;;;19.69;24.02
16331;BME280;8275;48.206;16.340;2023-04-27T07:35:32;99571.25;;;19.71;24.14
16331;BME280;8275;48.206;16.340;2023-04-27T07:38:00;99568.47;;;19.84;24.13
16331;BME280;8275;48.206;16.340;2023-04-27T07:43:00;99572.84;;;20.12;23.77
16331;BME280;8275;48.206;16.340;2023-04-27T07:45:29;99573.16;;;20.24;23.67
16331;BME280;8275;48.206;16.340;2023-04-27T07:48:00;99568.06;;;20.40;23.18
16331;BME280;8275;48.206;16.340;2023-04-27T07:50:29;99568.56;;;20.56;23.06
16331;BME280;8275;48.206;16.340;2023-04-27T07:52:58;99572.91;;;20.70;22.85
16331;BME280;8275;48.206;16.340;2023-04-27T07:55:27;99569.06;;;20.80;22.65
16331;BME280;8275;48.206;16.340;2023-04-27T07:57:57;99568.94;;;20.85;22.82
16331;BME280;8275;48.206;16.340;2023-04-27T08:00:25;99569.63;;;20.90;22.61
16331;BME280;8275;48.206;16.340;2023-04-27T08:02:54;99576.59;;;21.02;22.65
16331;BME280;8275;48.206;16.340;2023-04-27T08:05:23;99579.91;;;21.04;22.36
16331;BME280;8275;48.206;16.340;2023-04-27T08:07:52;99584.88;;;20.93;21.99
16331;BME280;8275;48.206;16.340;2023-04-27T08:10:21;99583.69;;;20.85;22.18
16331;BME280;8275;48.206;16.340;2023-04-27T08:12:50;99576.81;;;20.83;22.11
16331;BME280;8275;48.206;16.340;2023-04-27T08:15:20;99579.09;;;20.81;22.20
16331;BME280;8275;48.206;16.340;2023-04-27T08:17:49;99579.25;;;20.84;22.05
16331;BME280;8275;48.206;16.340;2023-04-27T08:20:17;99568.50;;;20.91;22.05
16331;BME280;8275;48.206;16.340;2023-04-27T08:22:46;99589.28;;;21.08;21.87
16331;BME280;8275;48.206;16.340;2023-04-27T08:25:14;99580.34;;;21.19;21.94
16331;BME280;8275;48.206;16.340;2023-04-27T08:27:43;99584.63;;;21.25;21.48
16331;BME280;8275;48.206;16.340;2023-04-27T08:30:12;99589.78;;;21.32;21.17
16331;BME280;8275;48.206;16.340;2023-04-27T08:32:42;99583.28;;;21.45;21.43
16331;BME280;8275;48.206;16.340;2023-04-27T08:35:11;99576.63;;;21.54;21.12
16331;BME280;8275;48.206;16.340;2023-04-27T08:37:40;99576.16;;;21.61;20.75
16331;BME280;8275;48.206;16.340;2023-04-27T08:40:11;99583.22;;;21.67;20.90
16331;BME280;8275;48.206;16.340;2023-04-27T08:42:53;99580.44;;;21.67;20.33
16331;BME280;8275;48.206;16.340;2023-04-27T08:45:22;99579.31;;;21.77;20.71
16331;BME280;8275;48.206;16.340;2023-04-27T08:47:52;99580.97;;;21.78;20.37
16331;BME280;8275;48.206;16.340;2023-04-27T08:50:21;99581.63;;;21.83;20.57
16331;BME280;8275;48.206;16.340;2023-04-27T08:52:50;99583.00;;;21.86;20.62
16331;BME280;8275;48.206;16.340;2023-04-27T08:55:19;99581.53;;;21.88;20.34
16331;BME280;8275;48.206;16.340;2023-04-27T08:57:55;99585.00;;;21.94;20.33
16331;BME280;8275;48.206;16.340;2023-04-27T09:00:27;99588.78;;;21.98;20.03
16331;BME280;8275;48.206;16.340;2023-04-27T09:03:07;99583.91;;;22.12;20.16
16331;BME280;8275;48.206;16.340;2023-04-27T09:05:36;99577.34;;;22.25;20.38
16331;BME280;8275;48.206;16.340;2023-04-27T09:08:41;99580.50;;;22.41;20.08
16331;BME280;8275;48.206;16.340;2023-04-27T09:11:10;99580.53;;;22.49;20.19
16331;BME280;8275;48.206;16.340;2023-04-27T09:13:42;99573.50;;;22.60;19.84
16331;BME280;8275;48.206;16.340;2023-04-27T09:16:12;99579.72;;;22.66;19.73
16331;BME280;8275;48.206;16.340;2023-04-27T09:18:42;99573.97;;;22.71;19.59
16331;BME280;8275;48.206;16.340;2023-04-27T09:21:22;99573.16;;;22.70;19.17
16331;BME280;8275;48.206;16.340;2023-04-27T09:23:51;99579.56;;;22.71;19.37
16331;BME280;8275;48.206;16.340;2023-04-27T09:26:21;99581.88;;;22.69;19.39
16331;BME280;8275;48.206;16.340;2023-04-27T09:28:53;99575.63;;;22.72;19.29
16331;BME280;8275;48.206;16.340;2023-04-27T09:31:30;99571.19;;;22.79;19.00
16331;BME280;8275;48.206;16.340;2023-04-27T09:34:00;99578.59;;;22.92;19.05
16331;BME280;8275;48.206;16.340;2023-04-27T09:36:30;99569.84;;;23.02;19.17
16331;BME280;8275;48.206;16.340;2023-04-27T09:39:02;99569.66;;;23.08;19.11
16331;BME280;8275;48.206;16.340;2023-04-27T09:41:32;99566.84;;;23.16;18.92
16331;BME280;8275;48.206;16.340;2023-04-27T09:44:01;99558.44;;;23.33;18.95
16331;BME280;8275;48.206;16.340;2023-04-27T09:46:32;99564.50;;;23.52;18.44
16331;BME280;8275;48.206;16.340;2023-04-27T09:49:04;99558.16;;;23.72;18.27
16331;BME280;8275;48.206;16.340;2023-04-27T09:51:33;99551.47;;;23.94;18.28
16331;BME280;8275;48.206;16.340;2023-04-27T09:54:03;99551.88;;;24.13;18.09
16331;BME280;8275;48.206;16.340;2023-04-27T09:56:45;99545.81;;;24.32;18.07
16331;BME280;8275;48.206;16.340;2023-04-27T09:59:38;99546.94;;;24.60;18.15
16331;BME280;8275;48.206;16.340;2023-04-27T10:02:10;99539.69;;;24.80;17.84
16331;BME280;8275;48.206;16.340;2023-04-27T10:05:20;99535.53;;;24.86;17.57
16331;BME280;8275;48.206;16.340;2023-04-27T10:07:53;99536.00;;;24.88;17.41
16331;BME280;8275;48.206;16.340;2023-04-27T10:10:21;99528.69;;;24.75;17.49
16331;BME280;8275;48.206;16.340;2023-04-27T10:12:56;99526.09;;;24.70;17.61
16331;BME280;8275;48.206;16.340;2023-04-27T10:15:28;99527.22;;;24.69;17.61
16331;BME280;8275;48.206;16.340;2023-04-27T10:18:04;99527.78;;;24.62;17.44
16331;BME280;8275;48.206;16.340;2023-04-27T10:20:36;99516.31;;;24.55;17.51
16331;BME280;8275;48.206;16.340;2023-04-27T10:23:04;99524.59;;;24.52;17.79
16331;BME280;8275;48.206;16.340;2023-04-27T10:25:37;99513.59;;;24.47;17.59
16331;BME280;8275;48.206;16.340;2023-04-27T10:28:07;99511.91;;;24.54;17.58
16331;BME280;8275;48.206;16.340;2023-04-27T10:30:45;99505.94;;;24.76;17.71
16331;BME280;8275;48.206;16.340;2023-04-27T10:33:17;99500.34;;;25.09;17.38
16331;BME280;8275;48.206;16.340;2023-04-27T10:35:56;99504.47;;;25.36;16.99
16331;BME280;8275;48.206;16.340;2023-04-27T10:38:30;99501.72;;;25.48;16.27
16331;BME280;8275;48.206;16.340;2023-04-27T10:41:01;99508.63;;;25.50;15.83
16331;BME280;8275;48.206;16.340;2023-04-27T10:43:35;99501.72;;;25.48;15.96
16331;BME280;8275;48.206;16.340;2023-04-27T10:46:08;99494.22;;;25.52;15.90
16331;BME280;8275;48.206;16.340;2023-04-27T10:48:37;99493.31;;;25.60;16.00
16331;BME280;8275;48.206;16.340;2023-04-27T10:51:08;99493.66;;;25.70;15.69
16331;BME280;8275;48.206;16.340;2023-04-27T10:53:37;99493.28;;;25.84;15.98
16331;BME280;8275;48.206;16.340;2023-04-27T10:56:06;99497.41;;;25.87;15.83
16331;BME280;8275;48.206;16.340;2023-04-27T10:58:36;99488.03;;;25.83;15.79
16331;BME280;8275;48.206;16.340;2023-04-27T11:01:08;99492.94;;;25.86;16.06
16331;BME280;8275;48.206;16.340;2023-04-27T11:03:36;99496.47;;;25.95;16.19
16331;BME280;8275;48.206;16.340;2023-04-27T11:06:05;99495.97;;;26.05;16.17
16331;BME280;8275;48.206;16.340;2023-04-27T11:08:43;99489.91;;;26.15;15.76
16331;BME280;8275;48.206;16.340;2023-04-27T11:11:14;99491.28;;;26.21;15.99
16331;BME280;8275;48.206;16.340;2023-04-27T11:13:43;99497.13;;;26.28;15.83
16331;BME280;8275;48.206;16.340;2023-04-27T11:16:12;99489.00;;;26.38;16.07
16331;BME280;8275;48.206;16.340;2023-04-27T11:18:41;99486.28;;;26.54;16.19
16331;BME280;8275;48.206;16.340;2023-04-27T11:21:11;99485.97;;;26.71;15.68
16331;BME280;8275;48.206;16.340;2023-04-27T11:23:42;99487.72;;;27.03;15.93
16331;BME280;8275;48.206;16.340;2023-04-27T11:26:13;99481.16;;;27.43;15.88
16331;BME280;8275;48.206;16.340;2023-04-27T11:28:43;99485.13;;;27.89;15.42
16331;BME280;8275;48.206;16.340;2023-04-27T11:31:12;99476.06;;;28.30;15.01
16331;BME280;8275;48.206;16.340;2023-04-27T11:33:47;99474.72;;;28.78;14.96
16331;BME280;8275;48.206;16.340;2023-04-27T11:36:16;99468.16;;;29.15;14.52
16331;BME280;8275;48.206;16.340;2023-04-27T11:38:46;99479.41;;;29.54;14.28
16331;BME280;8275;48.206;16.340;2023-04-27T11:41:15;99478.63;;;29.79;13.70
16331;BME280;8275;48.206;16.340;2023-04-27T11:43:44;99484.22;;;29.76;13.38
16331;BME280;8275;48.206;16.340;2023-04-27T11:46:19;99476.50;;;29.50;13.29
16331;BME280;8275;48.206;16.340;2023-04-27T11:48:48;99479.19;;;29.43;13.46
16331;BME280;8275;48.206;16.340;2023-04-27T11:51:17;99468.84;;;29.51;13.46
16331;BME280;8275;48.206;16.340;2023-04-27T11:53:47;99464.69;;;29.90;13.61
16331;BME280;8275;48.206;16.340;2023-04-27T11:56:17;99470.69;;;30.41;13.37
16331;BME280;8275;48.206;16.340;2023-04-27T11:58:45;99464.56;;;30.98;13.20
16331;BME280;8275;48.206;16.340;2023-04-27T12:01:13;99459.94;;;31.60;12.52
16331;BME280;8275;48.206;16.340;2023-04-27T12:03:57;99449.44;;;32.19;12.54
16331;BME280;8275;48.206;16.340;2023-04-27T12:06:28;99453.81;;;32.78;12.50
16331;BME280;8275;48.206;16.340;2023-04-27T12:09:01;99445.44;;;33.23;11.66
16331;BME280;8275;48.206;16.340;2023-04-27T12:11:30;99443.84;;;33.33;11.27
16331;BME280;8275;48.206;16.340;2023-04-27T12:13:58;99442.09;;;32.93;10.96
16331;BME280;8275;48.206;16.340;2023-04-27T12:16:27;99446.00;;;32.50;11.70
16331;BME280;8275;48.206;16.340;2023-04-27T12:18:55;99448.38;;;32.41;11.66
16331;BME280;8275;48.206;16.340;2023-04-27T12:21:24;99441.91;;;32.47;11.69
16331;BME280;8275;48.206;16.340;2023-04-27T12:23:52;99440.84;;;32.73;11.29
16331;BME280;8275;48.206;16.340;2023-04-27T12:26:22;99444.13;;;32.93;11.45
16331;BME280;8275;48.206;16.340;2023-04-27T12:28:51;99441.38;;;33.32;11.21
16331;BME280;8275;48.206;16.340;2023-04-27T12:31:20;99438.19;;;33.72;11.05
16331;BME280;8275;48.206;16.340;2023-04-27T12:33:53;99434.03;;;34.29;11.37
16331;BME280;8275;48.206;16.340;2023-04-27T12:36:22;99437.84;;;34.95;10.75
16331;BME280;8275;48.206;16.340;2023-04-27T12:38:50;99429.97;;;35.20;9.99
16331;BME280;8275;48.206;16.340;2023-04-27T12:41:19;99429.59;;;35.18;10.19
16331;BME280;8275;48.206;16.340;2023-04-27T12:43:50;99418.63;;;35.17;10.25
16331;BME280;8275;48.206;16.340;2023-04-27T12:46:19;99424.78;;;35.08;9.77
16331;BME280;8275;48.206;16.340;2023-04-27T12:48:47;99437.72;;;35.20;9.64
16331;BME280;8275;48.206;16.340;2023-04-27T12:51:17;99434.19;;;35.02;9.58
16331;BME280;8275;48.206;16.340;2023-04-27T12:53:45;99426.88;;;34.94;9.50
16331;BME280;8275;48.206;16.340;2023-04-27T12:56:14;99426.41;;;35.09;9.68
16331;BME280;8275;48.206;16.340;2023-04-27T12:58:42;99423.50;;;35.16;9.71
16331;BME280;8275;48.206;16.340;2023-04-27T13:01:13;99421.72;;;35.37;9.71
16331;BME280;8275;48.206;16.340;2023-04-27T13:03:42;99420.41;;;35.96;9.83
16331;BME280;8275;48.206;16.340;2023-04-27T13:06:10;99419.16;;;36.72;9.41
16331;BME280;8275;48.206;16.340;2023-04-27T13:08:40;99414.56;;;37.35;9.05
16331;BME280;8275;48.206;16.340;2023-04-27T13:11:08;99413.28;;;37.89;8.88
16331;BME280;8275;48.206;16.340;2023-04-27T13:13:37;99416.16;;;38.32;9.14
16331;BME280;8275;48.206;16.340;2023-04-27T13:16:06;99412.44;;;38.74;8.31